Home   Weather   Switzerland   Bern   Past weeks
Flag for Switzerland

Past Weather in Bern, Bern, Switzerland — Yesterday and Last 2 Weeks

Currently: 73 °F. Sunny. (Weather station: Bern / Belp, Switzerland). See more current weather

Past Weather in Bern — Graph

°F

Bern Temperature Yesterday

Maximum temperature yesterday: 70 °F (at 5:20 pm)
Minimum temperature yesterday: 55 °F (at 5:50 am)
Average temperature yesterday: 61 °F

High & Low Weather Summary for the Past Weeks

 TemperatureHumidityPressure
High95 °F (Jun 19, 4:20 pm)100% (Jun 23, 2:50 am)30.24 "Hg (Jun 23, 2:50 am)
Low48 °F (Jul 2, 5:20 am)23% (Jun 18, 2:50 pm)29.80 "Hg (Jun 23, 5:50 pm)
Average69 °F72%29.99 "Hg
* Reported Jun 17 12:20 pm — Jul 2 12:50 pm, Bern. Weather by CustomWeather, © 2022

Note: Actual official high and low records may vary slightly from our data, if they occured in-between our weather recording intervals... More about our weather records

Bern Weather History for the Previous 24 Hours

Scroll right to see more
 ConditionsComfort  
Time TempWeatherWind HumidityBarometerVisibility
12:50 pm
Sat, Jul 2
72 °FSunny.3 mph61%30.15 "Hg10 mi
12:20 pm70 °FPassing clouds.5 mph60%30.15 "HgN/A
11:50 am68 °FPassing clouds.5 mph69%30.15 "HgN/A
11:20 am68 °FPassing clouds.7 mph69%30.18 "HgN/A
10:50 am66 °FPassing clouds.5 mph68%30.18 "HgN/A
10:20 am64 °FPassing clouds.3 mph68%30.18 "HgN/A
9:50 am64 °FSunny.No wind68%30.18 "Hg10 mi
8:50 am61 °FPassing clouds.3 mph77%30.18 "HgN/A
8:20 am59 °FSunny.No wind82%30.21 "Hg10 mi
7:50 am57 °FSunny.3 mph88%30.21 "Hg10 mi
6:50 am52 °FSunny.No wind100%30.21 "Hg10 mi
6:20 am48 °FCool.1 mph100%30.21 "HgN/A
5:50 am48 °FCool.1 mph100%30.21 "HgN/A
5:20 am48 °FCool.2 mph100%30.21 "HgN/A
4:50 am50 °FCool.2 mph94%30.21 "HgN/A
4:20 am50 °FCool.1 mph94%30.21 "HgN/A
3:50 am50 °FCool.2 mph100%30.21 "HgN/A
3:20 am50 °FCool.3 mph100%30.21 "HgN/A
2:50 am52 °FCool.3 mph94%30.21 "HgN/A
1:20 am54 °FCool.5 mph94%30.21 "HgN/A
12:50 am54 °FCool.3 mph100%30.21 "HgN/A
12:20 am54 °FCool.1 mph94%30.21 "HgN/A
11:50 pm
Fri, Jul 1
55 °FPassing clouds.2 mph94%30.21 "HgN/A
11:20 pm55 °FPassing clouds.1 mph100%30.21 "HgN/A
10:50 pm57 °FPassing clouds.1 mph94%30.21 "HgN/A
10:20 pm59 °FCool.2 mph88%30.18 "HgN/A
9:50 pm61 °FPassing clouds.3 mph83%30.18 "Hg4 mi
9:20 pm63 °FPartly sunny.3 mph77%30.18 "HgN/A
8:50 pm64 °FScattered clouds.5 mph73%30.18 "HgN/A
8:20 pm66 °FScattered clouds.3 mph64%30.15 "HgN/A
7:50 pm68 °FScattered clouds.5 mph60%30.15 "HgN/A
7:20 pm70 °FScattered clouds.5 mph60%30.15 "HgN/A
6:50 pm70 °FScattered clouds.5 mph60%30.15 "HgN/A
6:20 pm68 °FBroken clouds.6 mph64%30.15 "HgN/A
5:50 pm70 °FBroken clouds.7 mph64%30.15 "HgN/A
5:20 pm70 °FPartly sunny.6 mph60%30.15 "HgN/A
4:50 pm68 °FBroken clouds.6 mph64%30.15 "HgN/A
4:20 pm66 °FPartly sunny.3 mph64%30.15 "HgN/A
3:50 pm66 °FScattered clouds.2 mph64%30.15 "HgN/A
3:20 pm64 °FPartly sunny.3 mph60%30.15 "HgN/A
2:50 pm64 °FPartly sunny.3 mph68%30.15 "HgN/A
2:20 pm63 °FBroken clouds.2 mph73%30.15 "HgN/A
Weather by CustomWeather, © 2022

See weather overview